sensor_id;sensor_type;location;lat;lon;timestamp;P1;durP1;ratioP1;P2;durP2;ratioP2
7191;SDS011;3637;51.494;11.958;2022-09-09T00:02:51;2.00;;;1.57;;
7191;SDS011;3637;51.494;11.958;2022-09-09T00:05:59;2.10;;;1.70;;
7191;SDS011;3637;51.494;11.958;2022-09-09T00:09:10;1.70;;;1.47;;
7191;SDS011;3637;51.494;11.958;2022-09-09T00:12:18;1.30;;;1.20;;
7191;SDS011;3637;51.494;11.958;2022-09-09T00:15:26;2.33;;;1.50;;
7191;SDS011;3637;51.494;11.958;2022-09-09T00:18:46;1.30;;;1.20;;
7191;SDS011;3637;51.494;11.958;2022-09-09T00:22:00;3.07;;;1.80;;
7191;SDS011;3637;51.494;11.958;2022-09-09T00:25:18;1.30;;;1.20;;
7191;SDS011;3637;51.494;11.958;2022-09-09T00:28:25;1.70;;;1.57;;
7191;SDS011;3637;51.494;11.958;2022-09-09T00:31:30;1.57;;;1.47;;
7191;SDS011;3637;51.494;11.958;2022-09-09T00:34:33;1.60;;;1.50;;
7191;SDS011;3637;51.494;11.958;2022-09-09T00:37:35;1.40;;;1.30;;
7191;SDS011;3637;51.494;11.958;2022-09-09T00:40:45;1.67;;;1.57;;
7191;SDS011;3637;51.494;11.958;2022-09-09T00:43:55;2.60;;;1.30;;
7191;SDS011;3637;51.494;11.958;2022-09-09T00:47:01;1.77;;;1.50;;
7191;SDS011;3637;51.494;11.958;2022-09-09T00:50:21;2.60;;;1.40;;
7191;SDS011;3637;51.494;11.958;2022-09-09T00:53:38;3.20;;;1.73;;
7191;SDS011;3637;51.494;11.958;2022-09-09T00:56:46;2.77;;;1.60;;
7191;SDS011;3637;51.494;11.958;2022-09-09T01:00:14;2.67;;;1.60;;
7191;SDS011;3637;51.494;11.958;2022-09-09T01:03:21;2.30;;;1.60;;
7191;SDS011;3637;51.494;11.958;2022-09-09T01:06:31;1.50;;;1.40;;
7191;SDS011;3637;51.494;11.958;2022-09-09T01:09:38;1.57;;;1.37;;
7191;SDS011;3637;51.494;11.958;2022-09-09T01:12:55;2.03;;;1.40;;
7191;SDS011;3637;51.494;11.958;2022-09-09T01:16:00;1.83;;;1.30;;
7191;SDS011;3637;51.494;11.958;2022-09-09T01:19:03;1.40;;;1.30;;
7191;SDS011;3637;51.494;11.958;2022-09-09T01:22:17;2.20;;;1.53;;
7191;SDS011;3637;51.494;11.958;2022-09-09T01:25:29;2.67;;;1.53;;
7191;SDS011;3637;51.494;11.958;2022-09-09T01:29:04;1.57;;;1.40;;
7191;SDS011;3637;51.494;11.958;2022-09-09T01:35:43;2.00;;;1.33;;
7191;SDS011;3637;51.494;11.958;2022-09-09T01:38:51;2.10;;;1.63;;
7191;SDS011;3637;51.494;11.958;2022-09-09T01:41:54;2.97;;;1.57;;
7191;SDS011;3637;51.494;11.958;2022-09-09T01:44:58;1.40;;;1.30;;
7191;SDS011;3637;51.494;11.958;2022-09-09T01:48:00;1.53;;;1.30;;
7191;SDS011;3637;51.494;11.958;2022-09-09T01:51:03;2.27;;;1.33;;
7191;SDS011;3637;51.494;11.958;2022-09-09T01:54:05;1.40;;;1.30;;
7191;SDS011;3637;51.494;11.958;2022-09-09T01:57:11;1.70;;;1.47;;
7191;SDS011;3637;51.494;11.958;2022-09-09T02:00:19;1.80;;;1.50;;
7191;SDS011;3637;51.494;11.958;2022-09-09T02:03:22;1.30;;;1.20;;
7191;SDS011;3637;51.494;11.958;2022-09-09T02:06:29;1.33;;;1.23;;
7191;SDS011;3637;51.494;11.958;2022-09-09T02:09:35;2.60;;;1.33;;
7191;SDS011;3637;51.494;11.958;2022-09-09T02:12:42;1.73;;;1.47;;
7191;SDS011;3637;51.494;11.958;2022-09-09T02:15:50;1.93;;;1.30;;
7191;SDS011;3637;51.494;11.958;2022-09-09T02:19:00;1.50;;;1.40;;
7191;SDS011;3637;51.494;11.958;2022-09-09T02:22:05;1.70;;;1.50;;
7191;SDS011;3637;51.494;11.958;2022-09-09T02:25:08;1.73;;;1.50;;
7191;SDS011;3637;51.494;11.958;2022-09-09T02:28:15;1.37;;;1.27;;
7191;SDS011;3637;51.494;11.958;2022-09-09T02:31:21;1.80;;;1.40;;
7191;SDS011;3637;51.494;11.958;2022-09-09T02:34:25;1.97;;;1.43;;
7191;SDS011;3637;51.494;11.958;2022-09-09T02:37:31;1.60;;;1.50;;
7191;SDS011;3637;51.494;11.958;2022-09-09T02:40:37;1.40;;;1.30;;
7191;SDS011;3637;51.494;11.958;2022-09-09T02:43:41;1.23;;;1.17;;
7191;SDS011;3637;51.494;11.958;2022-09-09T02:46:47;1.60;;;1.50;;
7191;SDS011;3637;51.494;11.958;2022-09-09T02:50:08;2.00;;;1.63;;
7191;SDS011;3637;51.494;11.958;2022-09-09T02:53:15;2.07;;;1.57;;
7191;SDS011;3637;51.494;11.958;2022-09-09T02:56:21;2.07;;;1.40;;
7191;SDS011;3637;51.494;11.958;2022-09-09T02:59:30;3.53;;;1.53;;
7191;SDS011;3637;51.494;11.958;2022-09-09T03:02:32;2.10;;;1.20;;
7191;SDS011;3637;51.494;11.958;2022-09-09T03:05:35;3.13;;;1.37;;
7191;SDS011;3637;51.494;11.958;2022-09-09T03:08:37;1.83;;;1.60;;
7191;SDS011;3637;51.494;11.958;2022-09-09T03:11:39;1.73;;;1.60;;
7191;SDS011;3637;51.494;11.958;2022-09-09T03:14:43;1.63;;;1.50;;
7191;SDS011;3637;51.494;11.958;2022-09-09T03:17:46;1.60;;;1.30;;
7191;SDS011;3637;51.494;11.958;2022-09-09T03:20:48;1.37;;;1.17;;
7191;SDS011;3637;51.494;11.958;2022-09-09T03:23:51;1.40;;;1.30;;
7191;SDS011;3637;51.494;11.958;2022-09-09T03:26:53;1.37;;;1.23;;
7191;SDS011;3637;51.494;11.958;2022-09-09T03:29:57;2.27;;;1.50;;
7191;SDS011;3637;51.494;11.958;2022-09-09T03:32:59;3.67;;;1.50;;
7191;SDS011;3637;51.494;11.958;2022-09-09T03:36:01;1.50;;;1.40;;
7191;SDS011;3637;51.494;11.958;2022-09-09T03:39:03;1.60;;;1.47;;
7191;SDS011;3637;51.494;11.958;2022-09-09T03:42:05;1.60;;;1.50;;
7191;SDS011;3637;51.494;11.958;2022-09-09T03:45:09;1.43;;;1.33;;
7191;SDS011;3637;51.494;11.958;2022-09-09T03:48:11;1.60;;;1.50;;
7191;SDS011;3637;51.494;11.958;2022-09-09T03:51:13;1.87;;;1.67;;
7191;SDS011;3637;51.494;11.958;2022-09-09T03:54:15;2.50;;;1.80;;
7191;SDS011;3637;51.494;11.958;2022-09-09T03:57:17;4.73;;;2.00;;
7191;SDS011;3637;51.494;11.958;2022-09-09T04:00:20;2.33;;;1.73;;
7191;SDS011;3637;51.494;11.958;2022-09-09T04:03:22;1.93;;;1.60;;
7191;SDS011;3637;51.494;11.958;2022-09-09T04:06:25;1.63;;;1.53;;
7191;SDS011;3637;51.494;11.958;2022-09-09T04:09:27;2.07;;;1.80;;
7191;SDS011;3637;51.494;11.958;2022-09-09T04:12:29;4.87;;;2.40;;
7191;SDS011;3637;51.494;11.958;2022-09-09T04:15:33;5.53;;;2.17;;
7191;SDS011;3637;51.494;11.958;2022-09-09T04:18:35;3.77;;;2.23;;
7191;SDS011;3637;51.494;11.958;2022-09-09T04:21:38;2.30;;;2.10;;
7191;SDS011;3637;51.494;11.958;2022-09-09T04:24:40;4.30;;;2.00;;
7191;SDS011;3637;51.494;11.958;2022-09-09T04:27:42;3.53;;;2.10;;
7191;SDS011;3637;51.494;11.958;2022-09-09T04:30:47;2.47;;;1.90;;
7191;SDS011;3637;51.494;11.958;2022-09-09T04:33:49;4.27;;;2.20;;
7191;SDS011;3637;51.494;11.958;2022-09-09T04:36:51;2.87;;;2.43;;
7191;SDS011;3637;51.494;11.958;2022-09-09T04:39:53;2.57;;;2.13;;
7191;SDS011;3637;51.494;11.958;2022-09-09T04:42:57;2.77;;;2.07;;
7191;SDS011;3637;51.494;11.958;2022-09-09T04:46:00;2.60;;;2.07;;
7191;SDS011;3637;51.494;11.958;2022-09-09T04:49:02;2.77;;;2.20;;
7191;SDS011;3637;51.494;11.958;2022-09-09T04:52:05;4.23;;;2.40;;
7191;SDS011;3637;51.494;11.958;2022-09-09T04:55:07;2.90;;;2.07;;
7191;SDS011;3637;51.494;11.958;2022-09-09T04:58:10;2.50;;;2.00;;
7191;SDS011;3637;51.494;11.958;2022-09-09T05:01:14;3.80;;;2.13;;
7191;SDS011;3637;51.494;11.958;2022-09-09T05:04:17;2.53;;;2.23;;
7191;SDS011;3637;51.494;11.958;2022-09-09T05:07:20;4.10;;;2.00;;
7191;SDS011;3637;51.494;11.958;2022-09-09T05:10:22;2.43;;;1.90;;
7191;SDS011;3637;51.494;11.958;2022-09-09T05:13:24;1.90;;;1.70;;
7191;SDS011;3637;51.494;11.958;2022-09-09T05:16:28;3.87;;;2.10;;
7191;SDS011;3637;51.494;11.958;2022-09-09T05:19:30;2.47;;;1.97;;
7191;SDS011;3637;51.494;11.958;2022-09-09T05:22:32;2.87;;;2.07;;
7191;SDS011;3637;51.494;11.958;2022-09-09T05:25:33;2.70;;;2.00;;
7191;SDS011;3637;51.494;11.958;2022-09-09T05:28:35;2.83;;;2.13;;
7191;SDS011;3637;51.494;11.958;2022-09-09T05:31:40;2.80;;;2.20;;
7191;SDS011;3637;51.494;11.958;2022-09-09T05:34:45;2.60;;;2.07;;
7191;SDS011;3637;51.494;11.958;2022-09-09T05:37:47;3.10;;;2.03;;
7191;SDS011;3637;51.494;11.958;2022-09-09T05:40:49;7.23;;;3.07;;
7191;SDS011;3637;51.494;11.958;2022-09-09T05:43:52;3.20;;;1.90;;
7191;SDS011;3637;51.494;11.958;2022-09-09T05:46:55;7.23;;;2.83;;
7191;SDS011;3637;51.494;11.958;2022-09-09T05:49:57;3.93;;;2.23;;
7191;SDS011;3637;51.494;11.958;2022-09-09T05:52:59;3.23;;;2.00;;
7191;SDS011;3637;51.494;11.958;2022-09-09T05:56:02;4.03;;;2.10;;
7191;SDS011;3637;51.494;11.958;2022-09-09T05:59:05;3.47;;;1.80;;
7191;SDS011;3637;51.494;11.958;2022-09-09T06:02:09;7.47;;;2.17;;
7191;SDS011;3637;51.494;11.958;2022-09-09T06:05:11;2.83;;;1.80;;
7191;SDS011;3637;51.494;11.958;2022-09-09T06:08:13;1.83;;;1.70;;
7191;SDS011;3637;51.494;11.958;2022-09-09T06:11:15;4.67;;;2.13;;
7191;SDS011;3637;51.494;11.958;2022-09-09T06:14:18;3.07;;;2.10;;
7191;SDS011;3637;51.494;11.958;2022-09-09T06:17:23;4.63;;;1.90;;
7191;SDS011;3637;51.494;11.958;2022-09-09T06:20:25;3.07;;;1.90;;
7191;SDS011;3637;51.494;11.958;2022-09-09T06:23:28;3.67;;;2.00;;
7191;SDS011;3637;51.494;11.958;2022-09-09T06:26:30;1.73;;;1.63;;
7191;SDS011;3637;51.494;11.958;2022-09-09T06:29:32;2.77;;;1.90;;
7191;SDS011;3637;51.494;11.958;2022-09-09T06:32:36;2.30;;;2.10;;
7191;SDS011;3637;51.494;11.958;2022-09-09T06:35:37;2.20;;;1.60;;
7191;SDS011;3637;51.494;11.958;2022-09-09T06:38:39;2.83;;;2.00;;
7191;SDS011;3637;51.494;11.958;2022-09-09T06:41:42;2.67;;;1.80;;
7191;SDS011;3637;51.494;11.958;2022-09-09T06:44:44;4.87;;;2.00;;
7191;SDS011;3637;51.494;11.958;2022-09-09T06:47:47;2.70;;;1.70;;
7191;SDS011;3637;51.494;11.958;2022-09-09T06:50:49;7.43;;;2.37;;
7191;SDS011;3637;51.494;11.958;2022-09-09T06:53:52;1.70;;;1.60;;
7191;SDS011;3637;51.494;11.958;2022-09-09T06:56:54;4.07;;;1.80;;
7191;SDS011;3637;51.494;11.958;2022-09-09T06:59:56;1.83;;;1.70;;
7191;SDS011;3637;51.494;11.958;2022-09-09T07:03:00;2.07;;;1.60;;
7191;SDS011;3637;51.494;11.958;2022-09-09T07:06:02;1.73;;;1.50;;
7191;SDS011;3637;51.494;11.958;2022-09-09T07:09:04;1.43;;;1.33;;
7191;SDS011;3637;51.494;11.958;2022-09-09T07:12:08;1.73;;;1.63;;
7191;SDS011;3637;51.494;11.958;2022-09-09T07:15:10;3.53;;;1.60;;
7191;SDS011;3637;51.494;11.958;2022-09-09T07:18:14;2.70;;;1.30;;
7191;SDS011;3637;51.494;11.958;2022-09-09T07:21:16;1.50;;;1.40;;
7191;SDS011;3637;51.494;11.958;2022-09-09T07:24:18;1.43;;;1.33;;
7191;SDS011;3637;51.494;11.958;2022-09-09T07:27:20;2.57;;;1.90;;
7191;SDS011;3637;51.494;11.958;2022-09-09T07:30:22;1.70;;;1.57;;
7191;SDS011;3637;51.494;11.958;2022-09-09T07:33:25;1.40;;;1.30;;
7191;SDS011;3637;51.494;11.958;2022-09-09T07:36:30;1.80;;;1.33;;
7191;SDS011;3637;51.494;11.958;2022-09-09T07:39:33;2.43;;;1.33;;
7191;SDS011;3637;51.494;11.958;2022-09-09T07:42:35;1.70;;;1.40;;
7191;SDS011;3637;51.494;11.958;2022-09-09T07:45:37;1.93;;;1.50;;
7191;SDS011;3637;51.494;11.958;2022-09-09T07:48:44;2.17;;;1.40;;
7191;SDS011;3637;51.494;11.958;2022-09-09T07:51:47;2.00;;;1.40;;
7191;SDS011;3637;51.494;11.958;2022-09-09T07:54:49;2.00;;;1.30;;
7191;SDS011;3637;51.494;11.958;2022-09-09T07:57:52;2.03;;;1.57;;
7191;SDS011;3637;51.494;11.958;2022-09-09T08:00:54;2.07;;;1.10;;
7191;SDS011;3637;51.494;11.958;2022-09-09T08:03:59;1.90;;;1.40;;
7191;SDS011;3637;51.494;11.958;2022-09-09T08:07:03;2.30;;;1.30;;
7191;SDS011;3637;51.494;11.958;2022-09-09T08:10:05;1.67;;;1.50;;
7191;SDS011;3637;51.494;11.958;2022-09-09T08:13:08;2.00;;;1.60;;
7191;SDS011;3637;51.494;11.958;2022-09-09T08:16:11;1.90;;;1.33;;
7191;SDS011;3637;51.494;11.958;2022-09-09T08:19:16;1.57;;;1.30;;
7191;SDS011;3637;51.494;11.958;2022-09-09T08:22:18;1.73;;;1.37;;
7191;SDS011;3637;51.494;11.958;2022-09-09T08:25:20;4.73;;;1.40;;
7191;SDS011;3637;51.494;11.958;2022-09-09T08:28:22;2.00;;;1.40;;
7191;SDS011;3637;51.494;11.958;2022-09-09T08:31:25;1.60;;;1.50;;
7191;SDS011;3637;51.494;11.958;2022-09-09T08:34:30;1.07;;;0.97;;
7191;SDS011;3637;51.494;11.958;2022-09-09T08:37:32;1.40;;;1.30;;
7191;SDS011;3637;51.494;11.958;2022-09-09T08:40:34;1.97;;;1.30;;
7191;SDS011;3637;51.494;11.958;2022-09-09T08:43:41;1.40;;;1.30;;
7191;SDS011;3637;51.494;11.958;2022-09-09T08:46:49;2.50;;;1.60;;
7191;SDS011;3637;51.494;11.958;2022-09-09T08:50:04;1.43;;;1.20;;
7191;SDS011;3637;51.494;11.958;2022-09-09T08:53:17;2.90;;;1.40;;
7191;SDS011;3637;51.494;11.958;2022-09-09T08:56:22;2.57;;;1.37;;
7191;SDS011;3637;51.494;11.958;2022-09-09T08:59:26;2.13;;;1.40;;
7191;SDS011;3637;51.494;11.958;2022-09-09T09:02:31;2.60;;;1.40;;
7191;SDS011;3637;51.494;11.958;2022-09-09T09:05:44;1.93;;;1.23;;
7191;SDS011;3637;51.494;11.958;2022-09-09T09:08:55;1.70;;;1.20;;
7191;SDS011;3637;51.494;11.958;2022-09-09T09:12:01;1.87;;;1.30;;
7191;SDS011;3637;51.494;11.958;2022-09-09T09:15:11;4.43;;;1.43;;
7191;SDS011;3637;51.494;11.958;2022-09-09T09:18:19;1.93;;;1.20;;
7191;SDS011;3637;51.494;11.958;2022-09-09T09:21:25;1.67;;;1.20;;
7191;SDS011;3637;51.494;11.958;2022-09-09T09:24:35;1.20;;;1.10;;
7191;SDS011;3637;51.494;11.958;2022-09-09T09:27:47;1.40;;;1.30;;
7191;SDS011;3637;51.494;11.958;2022-09-09T09:30:59;1.27;;;1.17;;
7191;SDS011;3637;51.494;11.958;2022-09-09T09:34:07;2.23;;;1.53;;
7191;SDS011;3637;51.494;11.958;2022-09-09T09:37:14;1.93;;;1.23;;
7191;SDS011;3637;51.494;11.958;2022-09-09T09:40:20;4.20;;;1.50;;
7191;SDS011;3637;51.494;11.958;2022-09-09T09:43:24;2.03;;;1.23;;
7191;SDS011;3637;51.494;11.958;2022-09-09T09:46:28;1.20;;;1.10;;
7191;SDS011;3637;51.494;11.958;2022-09-09T09:49:30;3.40;;;1.43;;
7191;SDS011;3637;51.494;11.958;2022-09-09T09:52:34;1.70;;;1.30;;
7191;SDS011;3637;51.494;11.958;2022-09-09T09:55:44;1.20;;;1.10;;
7191;SDS011;3637;51.494;11.958;2022-09-09T09:58:51;1.40;;;1.30;;
7191;SDS011;3637;51.494;11.958;2022-09-09T10:02:05;2.90;;;1.27;;
7191;SDS011;3637;51.494;11.958;2022-09-09T10:05:15;2.40;;;1.60;;
7191;SDS011;3637;51.494;11.958;2022-09-09T10:08:20;2.20;;;1.40;;
7191;SDS011;3637;51.494;11.958;2022-09-09T10:11:27;2.07;;;1.40;;
7191;SDS011;3637;51.494;11.958;2022-09-09T10:14:38;1.77;;;1.60;;
7191;SDS011;3637;51.494;11.958;2022-09-09T10:17:48;1.47;;;1.30;;
7191;SDS011;3637;51.494;11.958;2022-09-09T10:20:58;2.13;;;1.23;;
7191;SDS011;3637;51.494;11.958;2022-09-09T10:24:17;2.67;;;1.30;;
7191;SDS011;3637;51.494;11.958;2022-09-09T10:27:38;2.10;;;1.27;;
7191;SDS011;3637;51.494;11.958;2022-09-09T10:30:48;1.10;;;1.10;;
7191;SDS011;3637;51.494;11.958;2022-09-09T10:34:02;1.60;;;1.30;;
7191;SDS011;3637;51.494;11.958;2022-09-09T10:37:18;2.83;;;1.50;;
7191;SDS011;3637;51.494;11.958;2022-09-09T10:40:42;1.40;;;1.30;;
7191;SDS011;3637;51.494;11.958;2022-09-09T10:43:56;1.77;;;1.30;;
7191;SDS011;3637;51.494;11.958;2022-09-09T10:47:18;2.20;;;1.57;;
7191;SDS011;3637;51.494;11.958;2022-09-09T10:54:01;7.07;;;1.67;;
7191;SDS011;3637;51.494;11.958;2022-09-09T10:57:24;3.63;;;1.40;;
7191;SDS011;3637;51.494;11.958;2022-09-09T11:00:34;2.20;;;1.40;;
7191;SDS011;3637;51.494;11.958;2022-09-09T11:03:40;2.00;;;1.30;;
7191;SDS011;3637;51.494;11.958;2022-09-09T11:06:49;2.17;;;1.40;;
7191;SDS011;3637;51.494;11.958;2022-09-09T11:09:55;1.33;;;1.20;;
7191;SDS011;3637;51.494;11.958;2022-09-09T11:13:03;1.40;;;1.30;;
7191;SDS011;3637;51.494;11.958;2022-09-09T11:16:16;2.77;;;1.50;;
7191;SDS011;3637;51.494;11.958;2022-09-09T11:19:24;1.83;;;1.20;;
7191;SDS011;3637;51.494;11.958;2022-09-09T11:22:32;1.00;;;1.00;;
7191;SDS011;3637;51.494;11.958;2022-09-09T11:25:36;1.17;;;1.17;;
7191;SDS011;3637;51.494;11.958;2022-09-09T11:28:46;1.93;;;1.40;;
7191;SDS011;3637;51.494;11.958;2022-09-09T11:32:01;2.50;;;1.30;;
7191;SDS011;3637;51.494;11.958;2022-09-09T11:35:19;1.13;;;1.00;;
7191;SDS011;3637;51.494;11.958;2022-09-09T11:38:32;1.77;;;1.40;;
7191;SDS011;3637;51.494;11.958;2022-09-09T11:41:42;4.53;;;1.60;;
7191;SDS011;3637;51.494;11.958;2022-09-09T11:44:45;1.47;;;1.20;;
7191;SDS011;3637;51.494;11.958;2022-09-09T11:47:51;1.40;;;1.30;;
7191;SDS011;3637;51.494;11.958;2022-09-09T11:50:58;1.03;;;1.03;;
7191;SDS011;3637;51.494;11.958;2022-09-09T11:57:32;1.40;;;1.20;;
7191;SDS011;3637;51.494;11.958;2022-09-09T12:00:39;1.97;;;1.40;;
7191;SDS011;3637;51.494;11.958;2022-09-09T12:03:44;2.53;;;1.30;;
7191;SDS011;3637;51.494;11.958;2022-09-09T12:06:50;3.57;;;1.60;;
7191;SDS011;3637;51.494;11.958;2022-09-09T12:09:55;1.73;;;1.40;;
7191;SDS011;3637;51.494;11.958;2022-09-09T12:13:23;3.60;;;1.40;;
7191;SDS011;3637;51.494;11.958;2022-09-09T12:16:31;1.50;;;1.40;;
7191;SDS011;3637;51.494;11.958;2022-09-09T12:19:34;1.63;;;1.30;;
7191;SDS011;3637;51.494;11.958;2022-09-09T12:22:38;1.23;;;1.20;;
7191;SDS011;3637;51.494;11.958;2022-09-09T12:26:03;1.60;;;1.50;;
7191;SDS011;3637;51.494;11.958;2022-09-09T12:29:24;3.67;;;1.60;;
7191;SDS011;3637;51.494;11.958;2022-09-09T12:32:34;3.57;;;1.33;;
7191;SDS011;3637;51.494;11.958;2022-09-09T12:35:36;2.10;;;1.50;;
7191;SDS011;3637;51.494;11.958;2022-09-09T12:38:39;1.57;;;1.47;;
7191;SDS011;3637;51.494;11.958;2022-09-09T12:41:50;2.13;;;1.40;;
7191;SDS011;3637;51.494;11.958;2022-09-09T12:44:57;1.60;;;1.30;;
7191;SDS011;3637;51.494;11.958;2022-09-09T12:48:03;1.17;;;1.03;;
7191;SDS011;3637;51.494;11.958;2022-09-09T12:51:21;1.63;;;1.23;;
7191;SDS011;3637;51.494;11.958;2022-09-09T12:54:26;2.37;;;1.40;;
7191;SDS011;3637;51.494;11.958;2022-09-09T12:57:30;1.40;;;1.30;;
7191;SDS011;3637;51.494;11.958;2022-09-09T13:00:35;1.37;;;1.20;;
7191;SDS011;3637;51.494;11.958;2022-09-09T13:03:42;1.40;;;1.30;;
7191;SDS011;3637;51.494;11.958;2022-09-09T13:06:47;0.93;;;0.93;;
7191;SDS011;3637;51.494;11.958;2022-09-09T13:09:49;2.23;;;1.10;;
7191;SDS011;3637;51.494;11.958;2022-09-09T13:12:51;2.83;;;1.50;;
7191;SDS011;3637;51.494;11.958;2022-09-09T13:15:53;1.47;;;1.17;;
7191;SDS011;3637;51.494;11.958;2022-09-09T13:18:59;2.87;;;1.27;;
7191;SDS011;3637;51.494;11.958;2022-09-09T13:26:00;2.67;;;1.30;;
7191;SDS011;3637;51.494;11.958;2022-09-09T13:29:07;1.27;;;1.17;;
7191;SDS011;3637;51.494;11.958;2022-09-09T13:32:18;1.33;;;1.20;;
7191;SDS011;3637;51.494;11.958;2022-09-09T13:35:23;1.27;;;1.17;;
7191;SDS011;3637;51.494;11.958;2022-09-09T13:38:25;2.30;;;1.23;;
7191;SDS011;3637;51.494;11.958;2022-09-09T13:41:31;2.40;;;1.20;;
7191;SDS011;3637;51.494;11.958;2022-09-09T13:44:36;3.67;;;1.20;;
7191;SDS011;3637;51.494;11.958;2022-09-09T13:47:41;1.97;;;1.60;;
7191;SDS011;3637;51.494;11.958;2022-09-09T13:50:44;1.37;;;1.23;;
7191;SDS011;3637;51.494;11.958;2022-09-09T13:53:55;1.20;;;1.10;;
7191;SDS011;3637;51.494;11.958;2022-09-09T13:56:57;1.27;;;1.17;;
7191;SDS011;3637;51.494;11.958;2022-09-09T14:00:01;3.37;;;1.17;;
7191;SDS011;3637;51.494;11.958;2022-09-09T14:03:03;1.63;;;1.10;;
7191;SDS011;3637;51.494;11.958;2022-09-09T14:06:08;2.20;;;1.17;;
7191;SDS011;3637;51.494;11.958;2022-09-09T14:09:12;1.20;;;1.10;;
7191;SDS011;3637;51.494;11.958;2022-09-09T14:12:17;1.27;;;1.17;;
7191;SDS011;3637;51.494;11.958;2022-09-09T14:15:20;2.73;;;1.20;;
7191;SDS011;3637;51.494;11.958;2022-09-09T14:18:22;2.13;;;1.00;;
7191;SDS011;3637;51.494;11.958;2022-09-09T14:21:27;1.93;;;1.50;;
7191;SDS011;3637;51.494;11.958;2022-09-09T14:24:29;1.63;;;1.20;;
7191;SDS011;3637;51.494;11.958;2022-09-09T14:27:31;1.20;;;1.10;;
7191;SDS011;3637;51.494;11.958;2022-09-09T14:30:32;1.30;;;1.10;;
7191;SDS011;3637;51.494;11.958;2022-09-09T14:33:35;1.07;;;0.97;;
7191;SDS011;3637;51.494;11.958;2022-09-09T14:36:38;1.70;;;0.90;;
7191;SDS011;3637;51.494;11.958;2022-09-09T14:39:40;0.80;;;0.80;;
7191;SDS011;3637;51.494;11.958;2022-09-09T14:42:44;2.97;;;0.80;;
7191;SDS011;3637;51.494;11.958;2022-09-09T14:45:45;0.90;;;0.90;;
7191;SDS011;3637;51.494;11.958;2022-09-09T14:48:48;0.87;;;0.83;;
7191;SDS011;3637;51.494;11.958;2022-09-09T14:51:52;1.00;;;1.00;;
7191;SDS011;3637;51.494;11.958;2022-09-09T14:54:54;0.80;;;0.80;;
7191;SDS011;3637;51.494;11.958;2022-09-09T14:57:56;1.30;;;0.80;;
7191;SDS011;3637;51.494;11.958;2022-09-09T15:01:01;1.77;;;0.70;;
7191;SDS011;3637;51.494;11.958;2022-09-09T15:04:05;0.60;;;0.60;;
7191;SDS011;3637;51.494;11.958;2022-09-09T15:07:08;0.80;;;0.70;;
7191;SDS011;3637;51.494;11.958;2022-09-09T15:10:11;0.57;;;0.57;;
7191;SDS011;3637;51.494;11.958;2022-09-09T15:13:14;1.97;;;0.93;;
7191;SDS011;3637;51.494;11.958;2022-09-09T15:16:17;0.70;;;0.70;;
7191;SDS011;3637;51.494;11.958;2022-09-09T15:19:20;1.20;;;0.67;;
7191;SDS011;3637;51.494;11.958;2022-09-09T15:22:24;1.03;;;0.93;;
7191;SDS011;3637;51.494;11.958;2022-09-09T15:25:26;1.63;;;1.10;;
7191;SDS011;3637;51.494;11.958;2022-09-09T15:28:28;1.23;;;1.13;;
7191;SDS011;3637;51.494;11.958;2022-09-09T15:31:32;2.40;;;1.20;;
7191;SDS011;3637;51.494;11.958;2022-09-09T15:34:33;1.53;;;1.00;;
7191;SDS011;3637;51.494;11.958;2022-09-09T15:37:37;2.10;;;1.00;;
7191;SDS011;3637;51.494;11.958;2022-09-09T15:40:39;0.93;;;0.93;;
7191;SDS011;3637;51.494;11.958;2022-09-09T15:43:43;1.57;;;1.10;;
7191;SDS011;3637;51.494;11.958;2022-09-09T15:46:46;1.10;;;1.00;;
7191;SDS011;3637;51.494;11.958;2022-09-09T15:49:50;2.17;;;1.97;;
7191;SDS011;3637;51.494;11.958;2022-09-09T15:52:54;3.00;;;1.40;;
7191;SDS011;3637;51.494;11.958;2022-09-09T15:55:56;2.70;;;1.30;;
7191;SDS011;3637;51.494;11.958;2022-09-09T15:58:58;1.20;;;1.10;;
7191;SDS011;3637;51.494;11.958;2022-09-09T16:02:01;1.10;;;1.00;;
7191;SDS011;3637;51.494;11.958;2022-09-09T16:05:05;1.13;;;0.87;;
7191;SDS011;3637;51.494;11.958;2022-09-09T16:08:09;1.83;;;1.00;;
7191;SDS011;3637;51.494;11.958;2022-09-09T16:11:12;1.13;;;1.03;;
7191;SDS011;3637;51.494;11.958;2022-09-09T16:14:15;2.77;;;1.17;;
7191;SDS011;3637;51.494;11.958;2022-09-09T16:17:17;1.03;;;0.93;;
7191;SDS011;3637;51.494;11.958;2022-09-09T16:20:20;1.97;;;1.57;;
7191;SDS011;3637;51.494;11.958;2022-09-09T16:23:23;1.10;;;1.00;;
7191;SDS011;3637;51.494;11.958;2022-09-09T16:26:25;1.30;;;1.20;;
7191;SDS011;3637;51.494;11.958;2022-09-09T16:29:28;3.80;;;1.43;;
7191;SDS011;3637;51.494;11.958;2022-09-09T16:32:30;1.83;;;1.10;;
7191;SDS011;3637;51.494;11.958;2022-09-09T16:35:35;1.70;;;1.30;;
7191;SDS011;3637;51.494;11.958;2022-09-09T16:38:40;2.77;;;1.40;;
7191;SDS011;3637;51.494;11.958;2022-09-09T16:41:45;1.20;;;1.10;;
7191;SDS011;3637;51.494;11.958;2022-09-09T16:44:48;1.43;;;1.10;;
7191;SDS011;3637;51.494;11.958;2022-09-09T16:47:51;1.77;;;1.07;;
7191;SDS011;3637;51.494;11.958;2022-09-09T16:50:55;1.20;;;1.10;;
7191;SDS011;3637;51.494;11.958;2022-09-09T16:54:05;1.93;;;1.10;;
7191;SDS011;3637;51.494;11.958;2022-09-09T16:57:10;0.90;;;0.90;;
7191;SDS011;3637;51.494;11.958;2022-09-09T17:00:12;0.90;;;0.90;;
7191;SDS011;3637;51.494;11.958;2022-09-09T17:03:14;0.70;;;0.70;;
7191;SDS011;3637;51.494;11.958;2022-09-09T17:06:16;1.13;;;1.03;;
7191;SDS011;3637;51.494;11.958;2022-09-09T17:09:19;1.90;;;1.03;;
7191;SDS011;3637;51.494;11.958;2022-09-09T17:12:22;1.30;;;1.10;;
7191;SDS011;3637;51.494;11.958;2022-09-09T17:15:25;1.43;;;1.20;;
7191;SDS011;3637;51.494;11.958;2022-09-09T17:18:26;2.47;;;1.00;;
7191;SDS011;3637;51.494;11.958;2022-09-09T17:21:29;1.90;;;1.37;;
7191;SDS011;3637;51.494;11.958;2022-09-09T17:24:33;1.20;;;1.10;;
7191;SDS011;3637;51.494;11.958;2022-09-09T17:27:38;1.63;;;1.30;;
7191;SDS011;3637;51.494;11.958;2022-09-09T17:30:40;1.80;;;0.87;;
7191;SDS011;3637;51.494;11.958;2022-09-09T17:33:42;1.30;;;1.00;;
7191;SDS011;3637;51.494;11.958;2022-09-09T17:36:46;1.10;;;1.00;;
7191;SDS011;3637;51.494;11.958;2022-09-09T17:39:49;1.20;;;1.10;;
7191;SDS011;3637;51.494;11.958;2022-09-09T17:42:51;1.87;;;1.10;;
7191;SDS011;3637;51.494;11.958;2022-09-09T17:45:53;1.03;;;0.93;;
7191;SDS011;3637;51.494;11.958;2022-09-09T17:48:55;1.80;;;1.10;;
7191;SDS011;3637;51.494;11.958;2022-09-09T17:51:59;2.40;;;0.93;;
7191;SDS011;3637;51.494;11.958;2022-09-09T17:55:02;1.37;;;1.00;;
7191;SDS011;3637;51.494;11.958;2022-09-09T17:58:04;1.17;;;1.07;;
7191;SDS011;3637;51.494;11.958;2022-09-09T18:01:07;1.50;;;1.20;;
7191;SDS011;3637;51.494;11.958;2022-09-09T18:04:12;1.37;;;1.17;;
7191;SDS011;3637;51.494;11.958;2022-09-09T18:07:15;1.07;;;1.00;;
7191;SDS011;3637;51.494;11.958;2022-09-09T18:10:18;1.53;;;1.27;;
7191;SDS011;3637;51.494;11.958;2022-09-09T18:13:20;2.00;;;1.23;;
7191;SDS011;3637;51.494;11.958;2022-09-09T18:16:23;1.87;;;1.40;;
7191;SDS011;3637;51.494;11.958;2022-09-09T18:19:27;1.53;;;1.40;;
7191;SDS011;3637;51.494;11.958;2022-09-09T18:22:31;1.70;;;1.40;;
7191;SDS011;3637;51.494;11.958;2022-09-09T18:25:37;2.77;;;1.90;;
7191;SDS011;3637;51.494;11.958;2022-09-09T18:28:40;2.13;;;1.50;;
7191;SDS011;3637;51.494;11.958;2022-09-09T18:31:43;2.77;;;1.40;;
7191;SDS011;3637;51.494;11.958;2022-09-09T18:34:48;2.23;;;1.73;;
7191;SDS011;3637;51.494;11.958;2022-09-09T18:37:51;1.63;;;1.10;;
7191;SDS011;3637;51.494;11.958;2022-09-09T18:40:55;1.97;;;1.40;;
7191;SDS011;3637;51.494;11.958;2022-09-09T18:43:59;2.40;;;1.27;;
7191;SDS011;3637;51.494;11.958;2022-09-09T18:47:02;1.33;;;1.10;;
7191;SDS011;3637;51.494;11.958;2022-09-09T18:50:04;1.67;;;0.90;;
7191;SDS011;3637;51.494;11.958;2022-09-09T18:53:06;1.93;;;1.00;;
7191;SDS011;3637;51.494;11.958;2022-09-09T18:56:11;1.63;;;1.53;;
7191;SDS011;3637;51.494;11.958;2022-09-09T18:59:14;2.27;;;1.27;;
7191;SDS011;3637;51.494;11.958;2022-09-09T19:02:19;1.00;;;1.00;;
7191;SDS011;3637;51.494;11.958;2022-09-09T19:05:21;3.10;;;1.20;;
7191;SDS011;3637;51.494;11.958;2022-09-09T19:08:23;2.70;;;1.30;;